Time;durP1;ratioP1;P1;durP2;ratioP2;P2;SDS_P1;SDS_P2;PMS_P1;PMS_P2;Temp;Humidity;BMP_temperature;BMP_pressure;BME280_temperature;BME280_humidity;BME280_pressure;Samples;Min_cycle;Max_cycle;Signal;HPM_P1;HPM_P2
2021/09/11 00:02:07;;;;;;;17.47;16.57;;;21.40;99.90;;;;;;4993523;28;20521;-71
2021/09/11 00:04:33;;;;;;;17.80;16.70;;;21.40;99.90;;;;;;4993878;28;20459;-71
2021/09/11 00:07:00;;;;;;;17.77;16.87;;;21.40;99.90;;;;;;4993478;28;20493;-71
2021/09/11 00:09:27;;;;;;;17.63;16.73;;;21.40;99.90;;;;;;4993571;28;20871;-72
2021/09/11 00:11:53;;;;;;;17.60;16.70;;;21.40;99.90;;;;;;4993500;28;20815;-72
2021/09/11 00:14:21;;;;;;;17.43;16.53;;;21.30;99.90;;;;;;4993386;28;20451;-71
2021/09/11 00:16:48;;;;;;;18.07;16.90;;;21.30;99.90;;;;;;4993515;28;20961;-71
2021/09/11 00:19:15;;;;;;;19.17;18.17;;;21.30;99.90;;;;;;4993550;28;20512;-71
2021/09/11 00:21:41;;;;;;;18.93;17.93;;;21.20;99.90;;;;;;4993440;28;20451;-71
2021/09/11 00:24:08;;;;;;;17.97;16.97;;;21.20;99.90;;;;;;4993312;28;20459;-71
2021/09/11 00:26:35;;;;;;;18.73;17.67;;;21.10;99.90;;;;;;4992964;28;20451;-71
2021/09/11 00:29:01;;;;;;;19.43;18.33;;;21.10;99.90;;;;;;4993433;28;20920;-71
2021/09/11 00:31:29;;;;;;;20.03;19.03;;;21.10;99.90;;;;;;4993210;28;20491;-72
2021/09/11 00:33:56;;;;;;;17.20;16.20;;;21.10;99.90;;;;;;4993126;28;20458;-72
2021/09/11 00:36:23;;;;;;;18.47;17.40;;;21.00;99.90;;;;;;4993167;28;20457;-72
2021/09/11 00:38:49;;;;;;;18.90;17.90;;;21.10;99.90;;;;;;4992983;28;20451;-72
2021/09/11 00:41:16;;;;;;;18.30;17.30;;;21.00;99.90;;;;;;4993223;28;20447;-72
2021/09/11 00:43:48;;;;;;;18.50;17.50;;;21.00;99.90;;;;;;4993360;28;20447;-73
2021/09/11 00:46:15;;;;;;;20.40;19.10;;;20.90;99.90;;;;;;4993163;28;20459;-72
2021/09/11 00:48:44;;;;;;;18.37;17.47;;;20.90;99.90;;;;;;4992444;28;20459;-72
2021/09/11 00:51:13;;;;;;;18.43;17.43;;;20.90;99.90;;;;;;4992746;28;20560;-72
2021/09/11 00:53:41;;;;;;;18.80;17.83;;;20.80;99.90;;;;;;4983741;28;20530;-72
2021/09/11 00:56:08;;;;;;;18.80;17.70;;;21.00;99.90;;;;;;4979938;28;20465;-72
2021/09/11 00:58:35;;;;;;;18.40;17.50;;;20.90;99.90;;;;;;4992868;28;20524;-72
2021/09/11 01:01:02;;;;;;;19.30;18.20;;;20.90;99.90;;;;;;4992527;28;20450;-72
2021/09/11 01:03:28;;;;;;;20.00;19.00;;;20.80;99.90;;;;;;4992689;28;20964;-72
2021/09/11 01:05:56;;;;;;;18.90;18.00;;;20.80;99.90;;;;;;4992604;28;20490;-71
2021/09/11 01:08:23;;;;;;;18.70;17.70;;;20.80;99.90;;;;;;4992357;28;20485;-72
2021/09/11 01:10:50;;;;;;;18.00;17.03;;;20.80;99.90;;;;;;4992285;28;20482;-72
2021/09/11 01:13:17;;;;;;;20.57;19.27;;;20.80;99.90;;;;;;4992610;28;20458;-72
2021/09/11 01:15:44;;;;;;;19.10;18.00;;;20.80;99.90;;;;;;4992814;28;20451;-72
2021/09/11 01:18:11;;;;;;;19.30;18.20;;;20.80;99.90;;;;;;4992275;28;20489;-72
2021/09/11 01:20:39;;;;;;;18.10;17.10;;;20.80;99.90;;;;;;4991831;28;20451;-72
2021/09/11 01:23:07;;;;;;;17.73;16.93;;;20.90;99.90;;;;;;4992204;28;20510;-72
2021/09/11 01:25:35;;;;;;;18.43;17.50;;;20.90;99.90;;;;;;4991917;28;20462;-72
2021/09/11 01:28:02;;;;;;;18.23;17.13;;;20.80;99.90;;;;;;4992620;28;20459;-73
2021/09/11 01:30:28;;;;;;;19.20;18.10;;;20.80;99.90;;;;;;4992239;28;20494;-72
2021/09/11 01:32:55;;;;;;;19.03;18.03;;;20.70;99.90;;;;;;4992209;28;20458;-72
2021/09/11 01:35:22;;;;;;;19.63;18.63;;;20.60;99.90;;;;;;4992089;28;20820;-72
2021/09/11 01:37:49;;;;;;;20.47;19.33;;;20.60;99.90;;;;;;4992045;28;20454;-72
2021/09/11 01:40:15;;;;;;;19.90;18.90;;;20.70;99.90;;;;;;4991790;28;20474;-72
2021/09/11 01:42:44;;;;;;;17.30;16.40;;;20.60;99.90;;;;;;4991619;28;20991;-72
2021/09/11 01:45:12;;;;;;;19.27;17.97;;;20.60;99.90;;;;;;4991818;28;20489;-72
2021/09/11 01:47:40;;;;;;;20.07;18.90;;;20.50;99.90;;;;;;4991829;28;20812;-71
2021/09/11 06:08:47;;;;;;;18.13;17.17;;;19.30;99.90;;;;;;5735253;23;20491;-70
2021/09/11 06:11:13;;;;;;;18.23;17.13;;;19.40;99.90;;;;;;4975622;28;20494;-70
2021/09/11 06:13:40;;;;;;;19.37;18.37;;;19.50;99.90;;;;;;4972409;28;20466;-71
2021/09/11 06:16:08;;;;;;;18.50;17.60;;;19.40;99.90;;;;;;4974106;28;20472;-70
2021/09/11 06:18:35;;;;;;;18.47;17.57;;;19.40;99.90;;;;;;4980609;28;20460;-70
2021/09/11 06:21:01;;;;;;;18.93;17.93;;;19.40;99.90;;;;;;4971463;28;20455;-68
2021/09/11 06:23:28;;;;;;;19.00;18.00;;;19.50;99.90;;;;;;4971696;28;20447;-70
2021/09/11 06:25:56;;;;;;;19.43;18.43;;;19.50;99.90;;;;;;4972050;28;20467;-70
2021/09/11 06:28:24;;;;;;;19.30;18.30;;;19.50;99.90;;;;;;4971780;28;20459;-70
2021/09/11 06:30:51;;;;;;;19.90;18.70;;;19.40;99.90;;;;;;4971456;28;20545;-69
2021/09/11 06:33:17;;;;;;;18.87;17.83;;;19.30;99.90;;;;;;4971585;28;20451;-69
2021/09/11 06:35:44;;;;;;;18.93;17.93;;;19.40;99.90;;;;;;4971664;28;20478;-70
2021/09/11 06:38:11;;;;;;;19.37;18.37;;;19.40;99.90;;;;;;4971376;28;20942;-70
2021/09/11 06:40:37;;;;;;;20.70;19.30;;;19.40;99.90;;;;;;4972010;28;20470;-70
2021/09/11 06:43:05;;;;;;;18.60;17.50;;;19.40;99.90;;;;;;4971430;28;20479;-71
2021/09/11 06:45:32;;;;;;;19.20;17.80;;;19.40;99.90;;;;;;4971379;28;20460;-71
2021/09/11 06:47:59;;;;;;;19.37;18.47;;;19.40;99.90;;;;;;4971471;28;20466;-71
2021/09/11 06:50:26;;;;;;;19.47;18.37;;;19.40;99.90;;;;;;4971480;28;20455;-71
2021/09/11 06:52:53;;;;;;;20.90;19.57;;;19.50;99.90;;;;;;4971427;28;20455;-71
2021/09/11 06:55:20;;;;;;;19.30;18.20;;;19.60;99.90;;;;;;4971357;28;20479;-69
2021/09/11 06:57:47;;;;;;;20.27;18.90;;;19.70;99.90;;;;;;4971170;28;20463;-69
2021/09/11 07:00:15;;;;;;;21.27;19.87;;;19.90;99.90;;;;;;4971351;28;20451;-70
2021/09/11 07:02:42;;;;;;;18.63;17.70;;;20.20;99.90;;;;;;4971567;28;20451;-69
2021/09/11 07:05:10;;;;;;;20.00;18.70;;;20.10;99.90;;;;;;4971244;28;20799;-70
2021/09/11 07:07:37;;;;;;;19.20;18.10;;;20.10;99.90;;;;;;4971107;28;20476;-71
2021/09/11 07:10:06;;;;;;;18.70;17.80;;;20.00;99.90;;;;;;4971093;28;20483;-71
2021/09/11 07:12:32;;;;;;;19.03;18.00;;;20.10;99.90;;;;;;4971278;28;20487;-71
2021/09/11 07:15:01;;;;;;;18.90;17.90;;;20.20;99.90;;;;;;4971015;28;20451;-71
2021/09/11 07:17:29;;;;;;;18.50;17.50;;;20.40;99.90;;;;;;4974360;28;20554;-72
2021/09/11 07:19:56;;;;;;;18.60;17.60;;;20.60;99.90;;;;;;4982248;28;20459;-71
2021/09/11 07:22:23;;;;;;;17.73;16.83;;;20.80;99.90;;;;;;4974972;28;20889;-71
2021/09/11 07:24:49;;;;;;;18.70;17.80;;;20.70;99.90;;;;;;4974510;28;20792;-71
2021/09/11 07:27:17;;;;;;;18.70;17.70;;;20.60;99.90;;;;;;4974818;28;20458;-71
2021/09/11 07:29:44;;;;;;;18.80;17.80;;;20.60;99.90;;;;;;4974762;28;20455;-71
2021/09/11 07:32:11;;;;;;;19.80;18.83;;;20.70;99.90;;;;;;4974751;28;20865;-71
2021/09/11 07:34:39;;;;;;;17.77;16.87;;;20.60;99.90;;;;;;4974332;28;20443;-71
2021/09/11 07:37:05;;;;;;;18.00;16.90;;;20.80;99.90;;;;;;4974676;28;20451;-71
2021/09/11 07:39:32;;;;;;;19.13;17.90;;;21.10;99.90;;;;;;4974422;28;20857;-72
2021/09/11 07:41:59;;;;;;;17.63;16.73;;;21.10;99.90;;;;;;4974654;28;20551;-72
2021/09/11 07:44:25;;;;;;;17.70;16.80;;;21.10;99.90;;;;;;4974478;28;20471;-72
2021/09/11 07:46:52;;;;;;;15.60;14.90;;;21.10;99.90;;;;;;4974421;28;20825;-72
2021/09/11 07:49:19;;;;;;;17.10;16.30;;;21.20;99.90;;;;;;4974403;28;20873;-72
2021/09/11 07:51:47;;;;;;;16.73;15.93;;;21.10;99.90;;;;;;4974208;28;20491;-72
2021/09/11 07:54:13;;;;;;;17.07;16.17;;;21.50;99.90;;;;;;4974355;28;20459;-72
2021/09/11 07:56:40;;;;;;;17.90;16.83;;;21.80;99.90;;;;;;4974369;28;20459;-72
2021/09/11 07:59:07;;;;;;;17.63;16.83;;;22.00;99.90;;;;;;4974420;28;20459;-72
2021/09/11 08:01:33;;;;;;;19.40;18.20;;;22.10;99.90;;;;;;4974157;28;20698;-72
2021/09/11 08:04:00;;;;;;;16.97;16.00;;;22.30;99.90;;;;;;4974244;28;20447;-72
2021/09/11 08:06:27;;;;;;;17.13;16.43;;;22.50;99.90;;;;;;4974292;28;20444;-72
2021/09/11 08:08:55;;;;;;;17.93;16.93;;;22.50;99.90;;;;;;4973856;28;20897;-72
2021/09/11 08:11:21;;;;;;;18.13;16.90;;;22.60;99.90;;;;;;4974228;28;20487;-72
2021/09/11 08:13:48;;;;;;;18.80;17.70;;;23.00;99.90;;;;;;4973945;28;20454;-72
2021/09/11 08:16:15;;;;;;;18.67;17.67;;;22.90;99.90;;;;;;4973985;28;20451;-71
2021/09/11 08:18:41;;;;;;;16.20;15.40;;;23.60;99.90;;;;;;4977646;28;20492;-72
2021/09/11 08:21:08;;;;;;;15.83;15.03;;;23.70;99.90;;;;;;4981148;28;20460;-72
2021/09/11 08:23:35;;;;;;;17.40;16.40;;;23.60;99.90;;;;;;4973710;28;20502;-73
2021/09/11 08:26:04;;;;;;;16.67;15.77;;;23.10;99.90;;;;;;4973837;28;20870;-73
2021/09/11 08:28:31;;;;;;;17.60;16.53;;;23.00;99.90;;;;;;4973428;28;20487;-73
2021/09/11 08:30:57;;;;;;;16.70;15.83;;;22.80;99.90;;;;;;4972306;28;20471;-73
2021/09/11 08:33:24;;;;;;;17.47;16.13;;;22.80;99.90;;;;;;4976382;28;20448;-73
2021/09/11 08:35:51;;;;;;;16.97;15.97;;;23.10;99.90;;;;;;4975784;28;20470;-73
2021/09/11 08:38:17;;;;;;;16.87;16.10;;;23.30;99.90;;;;;;4974268;28;20448;-73
2021/09/11 08:40:44;;;;;;;16.87;16.07;;;23.20;99.90;;;;;;4972496;28;20467;-73
2021/09/11 08:43:16;;;;;;;16.30;15.60;;;23.30;99.90;;;;;;4974344;28;20455;-73
2021/09/11 08:45:43;;;;;;;16.47;15.73;;;23.60;99.90;;;;;;4974213;28;20463;-73
2021/09/11 08:48:09;;;;;;;16.17;15.43;;;23.90;99.90;;;;;;4974121;28;20456;-73
2021/09/11 08:50:36;;;;;;;16.97;16.17;;;23.90;99.90;;;;;;4973947;28;20467;-70
2021/09/11 08:53:03;;;;;;;15.60;14.80;;;23.70;99.90;;;;;;4973717;28;20491;-73
2021/09/11 08:55:31;;;;;;;16.50;15.53;;;23.50;99.90;;;;;;4973752;28;20448;-71
2021/09/11 08:58:02;;;;;;;15.67;14.77;;;23.20;99.90;;;;;;4973863;28;20460;-73
2021/09/11 09:00:42;;;;;;;15.60;14.90;;;23.30;99.90;;;;;;4973823;28;20475;-72
2021/09/11 09:03:33;;;;;;;15.43;14.63;;;23.70;99.90;;;;;;4973876;28;20450;-71
2021/09/11 09:06:11;;;;;;;16.10;15.20;;;24.30;99.90;;;;;;4973689;28;20459;-70
2021/09/11 09:08:38;;;;;;;15.23;14.63;;;24.70;99.90;;;;;;4973334;28;20487;-73
2021/09/11 09:11:19;;;;;;;15.00;14.37;;;25.00;99.90;;;;;;4985529;28;20470;-72
2021/09/11 09:13:58;;;;;;;18.23;17.33;;;24.70;99.90;;;;;;4976554;28;20496;-71
2021/09/11 09:16:28;;;;;;;20.73;19.73;;;24.20;99.90;;;;;;4993221;28;20486;-71
2021/09/11 09:18:55;;;;;;;20.40;19.40;;;23.40;99.90;;;;;;4988284;28;20489;-71
2021/09/11 09:21:25;;;;;;;19.13;18.23;;;22.60;99.90;;;;;;4992949;28;20461;-72
2021/09/11 09:23:55;;;;;;;20.33;19.40;;;22.30;99.90;;;;;;4992742;28;20455;-73
2021/09/11 09:26:23;;;;;;;19.97;19.00;;;22.30;99.90;;;;;;4992778;28;20459;-73
2021/09/11 09:29:05;;;;;;;16.80;16.10;;;22.30;99.90;;;;;;4992802;28;20458;-74
2021/09/11 09:31:34;;;;;;;16.30;15.60;;;22.40;99.90;;;;;;4992464;28;20602;-73
2021/09/11 09:34:00;;;;;;;16.67;15.97;;;22.90;99.90;;;;;;4992541;28;20932;-74
2021/09/11 09:36:36;;;;;;;15.73;15.13;;;23.60;99.90;;;;;;4992709;28;20455;-73
2021/09/11 09:39:05;;;;;;;17.03;16.13;;;24.30;99.90;;;;;;4992334;28;20454;-73
2021/09/11 09:41:49;;;;;;;14.80;14.17;;;24.60;99.90;;;;;;4992005;28;20458;-73
2021/09/11 09:44:17;;;;;;;15.83;15.03;;;24.70;99.90;;;;;;4992438;28;20529;-73
2021/09/11 09:46:46;;;;;;;16.13;15.33;;;24.90;99.90;;;;;;4992502;28;20837;-72
2021/09/11 09:49:18;;;;;;;15.00;14.40;;;25.30;99.90;;;;;;4992390;28;20454;-72
2021/09/11 09:51:45;;;;;;;14.70;13.90;;;26.10;99.90;;;;;;4992285;28;20526;-72
2021/09/11 09:54:13;;;;;;;14.20;13.70;;;27.20;99.90;;;;;;4992326;28;20454;-72
2021/09/11 09:56:40;;;;;;;14.40;13.80;;;28.20;99.90;;;;;;4992418;28;20454;-72
2021/09/11 09:59:07;;;;;;;14.87;14.27;;;29.20;98.20;;;;;;4992357;28;20471;-72
2021/09/11 10:01:36;;;;;;;14.80;14.20;;;29.70;96.50;;;;;;4992263;28;20454;-72
2021/09/11 10:04:15;;;;;;;13.90;13.30;;;29.70;95.70;;;;;;4991888;28;20477;-72
2021/09/11 10:06:43;;;;;;;15.57;14.87;;;29.80;95.70;;;;;;4991785;28;20451;-72
2021/09/11 10:09:13;;;;;;;14.77;14.10;;;29.60;95.20;;;;;;4991699;28;20486;-72
2021/09/11 10:11:42;;;;;;;15.13;14.50;;;29.90;95.10;;;;;;4991147;28;20891;-72
2021/09/11 10:14:12;;;;;;;15.43;14.83;;;30.40;94.00;;;;;;4991811;28;20482;-72
2021/09/11 10:16:40;;;;;;;14.77;14.17;;;31.30;92.20;;;;;;4992168;28;20451;-72
2021/09/11 10:19:20;;;;;;;14.60;13.90;;;32.70;90.00;;;;;;4991863;28;20439;-73
2021/09/11 10:21:47;;;;;;;13.50;13.00;;;33.00;86.20;;;;;;4991888;28;20473;-72
2021/09/11 10:24:29;;;;;;;14.10;13.50;;;33.30;85.50;;;;;;4991723;28;20466;-72
2021/09/11 10:26:58;;;;;;;15.50;14.80;;;33.70;84.30;;;;;;4991849;28;20462;-73
2021/09/11 10:29:43;;;;;;;15.60;15.00;;;34.20;81.60;;;;;;4991731;28;20517;-72
2021/09/11 10:32:14;;;;;;;15.30;14.60;;;32.70;84.50;;;;;;4991771;28;20999;-73
2021/09/11 10:34:48;;;;;;;15.20;14.60;;;32.70;84.10;;;;;;4992011;28;20522;-72
2021/09/11 10:37:25;;;;;;;16.83;16.03;;;33.40;81.60;;;;;;4991486;28;20460;-73
2021/09/11 10:40:16;;;;;;;15.73;15.03;;;33.40;81.00;;;;;;4991684;28;20466;-72
2021/09/11 10:43:14;;;;;;;14.80;14.20;;;31.90;85.70;;;;;;4991593;28;20458;-72
2021/09/11 10:45:43;;;;;;;15.10;14.30;;;31.00;88.70;;;;;;4991506;28;20447;-72
2021/09/11 10:48:31;;;;;;;15.57;14.87;;;30.70;90.40;;;;;;4991384;28;20789;-72
2021/09/11 10:51:11;;;;;;;15.10;14.50;;;31.80;88.00;;;;;;4991687;28;20454;-72
2021/09/11 10:53:38;;;;;;;15.73;15.07;;;33.40;83.50;;;;;;4993181;28;20486;-73
2021/09/11 10:56:23;;;;;;;15.43;14.83;;;34.20;79.10;;;;;;4995404;28;21025;-72
2021/09/11 10:59:23;;;;;;;15.23;14.63;;;34.50;77.10;;;;;;4995471;28;20454;-73
2021/09/11 11:01:58;;;;;;;14.90;14.33;;;34.90;76.10;;;;;;4995265;28;20958;-72
2021/09/11 11:04:25;;;;;;;16.17;15.57;;;35.60;73.40;;;;;;4995494;28;20461;-73
2021/09/11 11:06:54;;;;;;;16.67;16.07;;;35.00;74.10;;;;;;4995169;28;20883;-73
2021/09/11 11:09:22;;;;;;;15.23;14.63;;;33.70;76.80;;;;;;4994919;28;20907;-73
2021/09/11 11:11:50;;;;;;;16.03;15.23;;;32.10;80.70;;;;;;4994821;28;20775;-72
2021/09/11 11:14:17;;;;;;;15.43;14.73;;;30.80;85.00;;;;;;4995099;28;20941;-72
2021/09/11 11:16:48;;;;;;;15.73;14.93;;;29.80;88.20;;;;;;4994935;28;20952;-73
2021/09/11 11:19:26;;;;;;;14.30;13.80;;;29.20;90.30;;;;;;4995142;28;20454;-72
2021/09/11 11:22:00;;;;;;;15.07;14.37;;;28.60;91.90;;;;;;4994821;28;20465;-73
2021/09/11 11:24:29;;;;;;;14.00;13.40;;;28.10;92.70;;;;;;4994757;28;21027;-72
2021/09/11 11:26:58;;;;;;;14.10;13.50;;;27.80;93.80;;;;;;4994957;28;21020;-73
2021/09/11 11:29:26;;;;;;;15.90;15.10;;;27.50;94.90;;;;;;4995118;28;20852;-73
2021/09/11 11:31:53;;;;;;;14.97;14.20;;;26.80;96.30;;;;;;4994757;28;20454;-73
2021/09/11 11:34:19;;;;;;;17.07;16.27;;;26.10;98.30;;;;;;4994826;28;20450;-73
2021/09/11 11:36:51;;;;;;;14.90;14.10;;;25.70;99.40;;;;;;4994528;28;20462;-73
2021/09/11 11:39:24;;;;;;;16.10;15.30;;;25.50;99.90;;;;;;4994658;28;20460;-73
2021/09/11 11:42:01;;;;;;;16.93;16.13;;;25.40;99.90;;;;;;4994574;28;20473;-72
2021/09/11 11:44:28;;;;;;;18.60;17.80;;;24.90;99.90;;;;;;4994693;28;20947;-72
2021/09/11 11:47:02;;;;;;;21.40;20.50;;;24.20;99.90;;;;;;4994813;28;20877;-71
2021/09/11 11:49:35;;;;;;;22.00;20.90;;;23.60;99.90;;;;;;4994879;28;20485;-72
2021/09/11 11:52:02;;;;;;;25.10;24.00;;;22.90;99.90;;;;;;4994510;28;20453;-73
2021/09/11 11:54:31;;;;;;;28.47;26.90;;;22.20;99.90;;;;;;4994639;28;20457;-73
2021/09/11 11:57:07;;;;;;;30.43;29.03;;;21.80;99.90;;;;;;4994855;28;20455;-72
2021/09/11 11:59:34;;;;;;;35.50;33.27;;;21.50;99.90;;;;;;4994524;28;20458;-74
2021/09/11 12:02:00;;;;;;;35.07;32.97;;;21.20;99.90;;;;;;4994544;28;20489;-75
2021/09/11 12:04:27;;;;;;;38.30;36.07;;;21.00;99.90;;;;;;4994306;28;20457;-75
2021/09/11 12:06:54;;;;;;;37.10;34.70;;;20.90;99.90;;;;;;4994306;28;20455;-73
2021/09/11 12:09:21;;;;;;;38.87;36.63;;;20.70;99.90;;;;;;4994237;28;20495;-73
2021/09/11 12:11:50;;;;;;;37.57;35.37;;;20.60;99.90;;;;;;4994407;28;20451;-74
2021/09/11 12:14:17;;;;;;;34.10;32.40;;;20.40;99.90;;;;;;4994235;28;20496;-73
2021/09/11 12:16:45;;;;;;;33.57;31.97;;;20.30;99.90;;;;;;4994387;28;20451;-74
2021/09/11 12:19:13;;;;;;;34.93;33.23;;;20.10;99.90;;;;;;4994373;28;20960;-74
2021/09/11 12:21:40;;;;;;;33.63;31.97;;;20.00;99.90;;;;;;4994323;28;20450;-74
2021/09/11 12:24:19;;;;;;;28.93;27.73;;;20.30;99.90;;;;;;4993936;28;20455;-74
2021/09/11 12:26:46;;;;;;;23.97;22.97;;;20.50;99.90;;;;;;4994248;28;20450;-74
2021/09/11 12:29:16;;;;;;;22.53;21.63;;;20.80;99.90;;;;;;4994139;28;20550;-74
2021/09/11 12:31:54;;;;;;;20.00;19.10;;;21.40;99.90;;;;;;4994115;28;20513;-72
2021/09/11 12:34:21;;;;;;;17.90;17.20;;;21.80;99.90;;;;;;4993902;28;21011;-73
2021/09/11 12:36:49;;;;;;;16.60;16.00;;;22.20;99.90;;;;;;4993930;28;20462;-73
2021/09/11 12:39:30;;;;;;;16.73;16.13;;;22.20;99.90;;;;;;4993840;28;20842;-73
2021/09/11 12:41:58;;;;;;;15.87;15.27;;;22.50;99.90;;;;;;4994033;28;20461;-73
2021/09/11 12:44:30;;;;;;;14.67;14.17;;;22.60;99.90;;;;;;4993857;28;20459;-73
2021/09/11 12:46:58;;;;;;;15.03;14.50;;;22.50;99.90;;;;;;4993870;28;20462;-73
2021/09/11 12:49:28;;;;;;;14.90;14.30;;;23.60;99.90;;;;;;4995545;28;20784;-74
2021/09/11 12:51:56;;;;;;;14.20;13.70;;;24.30;99.90;;;;;;5003116;28;20462;-74
2021/09/11 12:54:23;;;;;;;15.53;15.03;;;25.60;99.90;;;;;;5001419;28;20562;-74
2021/09/11 12:56:51;;;;;;;16.27;15.67;;;26.80;99.90;;;;;;5001549;28;20478;-74
2021/09/11 12:59:18;;;;;;;14.80;14.20;;;26.60;99.90;;;;;;5002979;28;20904;-73
2021/09/11 13:01:47;;;;;;;14.67;14.17;;;26.50;99.90;;;;;;5001687;28;20466;-73
2021/09/11 13:04:16;;;;;;;15.00;14.50;;;25.80;99.90;;;;;;5000794;28;20467;-74
2021/09/11 13:06:44;;;;;;;15.43;14.83;;;25.70;99.90;;;;;;5002124;28;20943;-75
2021/09/11 13:09:12;;;;;;;16.13;15.50;;;26.10;99.90;;;;;;5002446;28;20485;-74
2021/09/11 13:11:39;;;;;;;14.13;13.53;;;26.30;99.90;;;;;;4998284;28;20455;-75
2021/09/11 13:14:07;;;;;;;13.80;13.30;;;26.50;99.90;;;;;;5001645;28;21018;-75
2021/09/11 13:16:34;;;;;;;14.20;13.60;;;26.50;99.90;;;;;;5001912;28;20450;-74
2021/09/11 13:19:04;;;;;;;13.50;13.10;;;27.40;99.90;;;;;;5000767;28;20458;-75
2021/09/11 13:21:31;;;;;;;13.40;12.90;;;28.20;99.90;;;;;;5000854;28;21008;-75
2021/09/11 13:23:58;;;;;;;13.73;13.23;;;28.00;99.60;;;;;;4995374;28;20810;-74
2021/09/11 13:26:26;;;;;;;14.30;13.60;;;27.70;99.90;;;;;;4993823;28;20453;-75
2021/09/11 13:28:54;;;;;;;14.00;13.50;;;27.80;99.90;;;;;;4993995;28;20451;-74
2021/09/11 13:31:23;;;;;;;14.10;13.60;;;28.50;99.90;;;;;;4994491;28;20458;-74
2021/09/11 13:33:50;;;;;;;14.63;14.13;;;29.90;98.40;;;;;;4994135;28;20491;-75
2021/09/11 13:36:19;;;;;;;14.30;13.60;;;30.90;95.40;;;;;;4993045;28;20464;-75
2021/09/11 13:38:46;;;;;;;14.40;13.90;;;30.80;94.00;;;;;;4992670;28;20462;-74
2021/09/11 13:41:13;;;;;;;14.80;14.30;;;31.70;93.00;;;;;;4992617;28;20464;-75
2021/09/11 13:43:40;;;;;;;15.90;15.30;;;32.70;92.20;;;;;;4992735;28;20454;-75
2021/09/11 13:46:08;;;;;;;15.60;14.87;;;33.60;90.40;;;;;;4992780;28;20459;-75
2021/09/11 13:48:34;;;;;;;15.07;14.47;;;34.10;87.10;;;;;;4992556;28;20458;-72
2021/09/11 13:51:01;;;;;;;15.77;15.17;;;34.00;84.30;;;;;;4992326;28;20474;-73
2021/09/11 13:53:29;;;;;;;15.83;15.27;;;33.60;84.20;;;;;;4992446;28;20482;-63
2021/09/11 13:55:56;;;;;;;16.10;15.40;;;33.60;83.80;;;;;;4992624;28;20482;-75
2021/09/11 13:58:22;;;;;;;15.53;14.93;;;33.70;83.20;;;;;;4992523;28;21043;-74
2021/09/11 14:00:49;;;;;;;15.13;14.63;;;33.80;82.00;;;;;;4988751;28;20459;-74
2021/09/11 14:03:16;;;;;;;14.97;14.27;;;33.40;84.30;;;;;;4991379;28;20466;-75
2021/09/11 14:05:43;;;;;;;15.27;14.67;;;32.50;84.50;;;;;;4991162;28;20455;-74
2021/09/11 14:08:10;;;;;;;14.60;14.00;;;31.50;88.50;;;;;;4991925;28;20470;-75
2021/09/11 14:10:39;;;;;;;14.23;13.73;;;29.80;90.70;;;;;;4992233;28;20829;-74
2021/09/11 14:13:05;;;;;;;13.70;13.20;;;29.00;92.40;;;;;;4992000;28;20564;-75
2021/09/11 14:15:32;;;;;;;14.73;14.13;;;28.20;93.60;;;;;;4991992;28;20462;-75
2021/09/11 14:17:59;;;;;;;14.33;13.83;;;27.50;95.10;;;;;;4992071;28;20455;-74
2021/09/11 14:20:26;;;;;;;14.40;13.90;;;26.90;96.60;;;;;;4992089;28;20446;-74
2021/09/11 14:22:52;;;;;;;13.97;13.40;;;26.50;98.00;;;;;;4991980;28;20694;-74
2021/09/11 14:25:19;;;;;;;15.10;14.50;;;26.30;99.30;;;;;;4991935;28;20450;-75
2021/09/11 14:27:48;;;;;;;14.17;13.53;;;26.00;99.80;;;;;;4991816;28;20458;-75
2021/09/11 14:30:17;;;;;;;13.73;13.23;;;25.60;99.90;;;;;;4991934;28;20447;-75
2021/09/11 14:32:45;;;;;;;13.57;12.97;;;25.30;99.90;;;;;;4991663;28;20971;-74
2021/09/11 14:35:12;;;;;;;14.27;13.73;;;25.20;99.90;;;;;;4991845;28;20491;-75
2021/09/11 14:37:39;;;;;;;14.37;13.67;;;24.90;99.90;;;;;;4991857;28;20454;-75
2021/09/11 14:40:08;;;;;;;13.93;13.33;;;24.80;99.90;;;;;;4991581;28;20462;-74
2021/09/11 14:42:35;;;;;;;13.90;13.40;;;24.90;99.90;;;;;;4991915;28;20524;-75
2021/09/11 14:45:04;;;;;;;14.83;14.23;;;25.10;99.90;;;;;;4991692;28;20478;-74
2021/09/11 14:47:34;;;;;;;14.93;14.33;;;25.10;99.90;;;;;;4991634;28;20454;-74
2021/09/11 14:50:01;;;;;;;14.47;13.83;;;25.00;99.90;;;;;;4991522;28;20539;-75
2021/09/11 14:52:28;;;;;;;14.10;13.57;;;25.10;99.90;;;;;;4991553;28;20929;-74
2021/09/11 14:54:56;;;;;;;14.23;13.63;;;25.00;99.90;;;;;;4991742;28;20483;-75
2021/09/11 14:57:22;;;;;;;14.20;13.50;;;25.10;99.90;;;;;;4991623;28;20454;-75
2021/09/11 14:59:49;;;;;;;13.67;13.17;;;25.20;99.90;;;;;;4991457;28;20455;-75
2021/09/11 15:02:17;;;;;;;14.20;13.60;;;25.30;99.90;;;;;;4991598;28;20450;-74
2021/09/11 15:04:44;;;;;;;15.10;14.50;;;25.60;99.90;;;;;;4991374;28;20458;-75
2021/09/11 15:07:11;;;;;;;15.10;14.40;;;25.80;99.90;;;;;;4991390;28;20996;-75
2021/09/11 15:09:37;;;;;;;14.20;13.70;;;26.00;99.90;;;;;;4991321;28;20490;-75
2021/09/11 15:12:04;;;;;;;14.00;13.50;;;26.20;99.90;;;;;;4991397;28;20458;-75
2021/09/11 15:14:31;;;;;;;14.10;13.50;;;26.20;99.90;;;;;;4991288;28;20494;-75
2021/09/11 15:16:58;;;;;;;15.40;14.70;;;26.00;99.90;;;;;;4991353;28;20466;-75
2021/09/11 15:19:26;;;;;;;14.13;13.63;;;25.80;99.90;;;;;;4991486;28;20450;-75
2021/09/11 15:21:53;;;;;;;14.90;13.67;;;25.40;99.90;;;;;;4991226;28;20461;-75
2021/09/11 15:24:20;;;;;;;14.00;13.37;;;25.10;99.90;;;;;;4991310;28;20451;-75
2021/09/11 15:26:46;;;;;;;13.70;13.20;;;24.60;99.90;;;;;;4991319;28;20455;-75
2021/09/11 15:29:13;;;;;;;13.80;13.30;;;24.50;99.90;;;;;;4991310;28;20462;-74
2021/09/11 15:31:40;;;;;;;13.27;12.77;;;24.30;99.90;;;;;;4991604;28;20457;-75
2021/09/11 15:34:06;;;;;;;13.60;13.00;;;24.30;99.90;;;;;;4989403;28;20489;-75
2021/09/11 15:36:34;;;;;;;13.57;12.93;;;24.20;99.90;;;;;;4991336;28;20455;-75
2021/09/11 15:39:01;;;;;;;14.63;13.93;;;24.10;99.90;;;;;;4992127;28;20458;-74
2021/09/11 15:41:28;;;;;;;15.10;14.50;;;24.20;99.90;;;;;;4995111;28;20520;-75
2021/09/11 15:43:55;;;;;;;15.93;15.10;;;24.20;99.90;;;;;;4995130;28;20793;-75
2021/09/11 15:46:21;;;;;;;14.77;13.90;;;24.20;99.90;;;;;;4995004;28;20457;-75
2021/09/11 15:48:49;;;;;;;14.80;14.10;;;24.30;99.90;;;;;;4994822;28;20459;-75
2021/09/11 15:51:16;;;;;;;14.33;13.73;;;24.30;99.90;;;;;;4994481;28;20867;-75
2021/09/11 15:53:44;;;;;;;13.70;13.00;;;24.40;99.90;;;;;;4995094;28;20484;-74
2021/09/11 15:56:10;;;;;;;15.70;14.97;;;24.10;99.90;;;;;;4994907;28;20458;-75
2021/09/11 15:58:37;;;;;;;16.23;15.53;;;23.70;99.90;;;;;;4994764;28;20454;-75
2021/09/11 16:01:04;;;;;;;19.20;18.20;;;23.30;99.90;;;;;;4994649;28;20455;-74
2021/09/11 16:03:31;;;;;;;20.37;19.40;;;23.00;99.90;;;;;;4994611;28;20457;-74
2021/09/11 16:05:57;;;;;;;24.03;23.03;;;22.60;99.90;;;;;;4994661;28;20466;-75
2021/09/11 16:08:24;;;;;;;23.97;22.90;;;22.50;99.90;;;;;;4994346;28;20980;-75
2021/09/11 16:10:52;;;;;;;23.40;22.30;;;22.30;99.90;;;;;;4994607;28;20450;-74
2021/09/11 16:13:19;;;;;;;23.50;22.43;;;22.00;99.90;;;;;;4994500;28;20481;-75
2021/09/11 16:15:45;;;;;;;22.80;21.80;;;21.80;99.90;;;;;;4994545;28;20863;-75
2021/09/11 16:18:12;;;;;;;22.50;21.40;;;21.60;99.90;;;;;;4994475;28;20450;-75
2021/09/11 16:20:39;;;;;;;22.00;21.00;;;21.60;99.90;;;;;;4994434;28;20455;-76
2021/09/11 16:23:06;;;;;;;22.00;21.10;;;21.50;99.90;;;;;;4994181;28;20463;-75
2021/09/11 16:25:32;;;;;;;21.37;20.47;;;21.40;99.90;;;;;;4994318;28;20466;-75
2021/09/11 16:28:00;;;;;;;20.27;19.37;;;21.40;99.90;;;;;;4994477;28;20458;-75
2021/09/11 16:30:27;;;;;;;21.13;20.13;;;21.30;99.90;;;;;;4994262;28;20482;-75
2021/09/11 16:32:54;;;;;;;23.00;22.00;;;21.30;99.90;;;;;;4994246;28;20859;-75
2021/09/11 16:35:20;;;;;;;25.70;24.50;;;21.20;99.90;;;;;;4994250;28;20490;-75
2021/09/11 16:37:48;;;;;;;24.80;23.60;;;21.20;99.90;;;;;;4993946;28;20461;-75
2021/09/11 16:40:17;;;;;;;26.00;24.80;;;21.20;99.90;;;;;;4994147;28;20490;-75
2021/09/11 16:42:44;;;;;;;24.70;23.60;;;21.20;99.90;;;;;;4993913;28;20953;-75
2021/09/11 16:45:13;;;;;;;24.87;23.77;;;21.10;99.90;;;;;;4993705;28;20446;-75
2021/09/11 16:47:40;;;;;;;23.30;22.33;;;21.00;99.90;;;;;;4993960;28;20455;-74
2021/09/11 16:50:08;;;;;;;23.43;22.33;;;20.70;99.90;;;;;;4993187;28;20509;-75
2021/09/11 16:52:36;;;;;;;22.53;21.53;;;20.60;99.90;;;;;;4993225;28;20454;-75
2021/09/11 16:55:03;;;;;;;23.23;22.23;;;20.60;99.90;;;;;;4993467;28;20513;-75